sensor_id;sensor_type;location;lat;lon;timestamp;P1;durP1;ratioP1;P2;durP2;ratioP2
13343;SDS011;6741;48.964;9.406;2024-02-15T00:00:23;3.53;;;3.23;;
13343;SDS011;6741;48.964;9.406;2024-02-15T00:02:52;4.27;;;3.87;;
13343;SDS011;6741;48.964;9.406;2024-02-15T00:05:20;3.57;;;3.27;;
13343;SDS011;6741;48.964;9.406;2024-02-15T00:07:47;5.47;;;3.80;;
13343;SDS011;6741;48.964;9.406;2024-02-15T00:10:14;4.90;;;3.87;;
13343;SDS011;6741;48.964;9.406;2024-02-15T00:12:41;4.43;;;3.93;;
13343;SDS011;6741;48.964;9.406;2024-02-15T00:15:08;5.27;;;3.90;;
13343;SDS011;6741;48.964;9.406;2024-02-15T00:17:35;3.97;;;3.27;;
13343;SDS011;6741;48.964;9.406;2024-02-15T00:20:03;4.20;;;3.80;;
13343;SDS011;6741;48.964;9.406;2024-02-15T00:22:36;5.17;;;4.10;;
13343;SDS011;6741;48.964;9.406;2024-02-15T00:25:03;4.13;;;3.73;;
13343;SDS011;6741;48.964;9.406;2024-02-15T00:27:31;3.83;;;3.20;;
13343;SDS011;6741;48.964;9.406;2024-02-15T00:29:59;4.57;;;4.00;;
13343;SDS011;6741;48.964;9.406;2024-02-15T00:32:26;4.57;;;4.17;;
13343;SDS011;6741;48.964;9.406;2024-02-15T00:34:53;4.17;;;3.77;;
13343;SDS011;6741;48.964;9.406;2024-02-15T00:37:20;4.63;;;4.23;;
13343;SDS011;6741;48.964;9.406;2024-02-15T00:39:48;6.37;;;4.67;;
13343;SDS011;6741;48.964;9.406;2024-02-15T00:42:15;5.17;;;4.60;;
13343;SDS011;6741;48.964;9.406;2024-02-15T00:44:42;5.43;;;4.90;;
13343;SDS011;6741;48.964;9.406;2024-02-15T00:47:09;6.23;;;4.87;;
13343;SDS011;6741;48.964;9.406;2024-02-15T00:49:37;5.80;;;4.47;;
13343;SDS011;6741;48.964;9.406;2024-02-15T00:52:04;6.03;;;4.23;;
13343;SDS011;6741;48.964;9.406;2024-02-15T00:54:31;5.83;;;4.23;;
13343;SDS011;6741;48.964;9.406;2024-02-15T00:57:00;6.20;;;4.50;;
13343;SDS011;6741;48.964;9.406;2024-02-15T00:59:26;6.20;;;5.03;;
13343;SDS011;6741;48.964;9.406;2024-02-15T01:01:53;6.20;;;4.77;;
13343;SDS011;6741;48.964;9.406;2024-02-15T01:04:20;6.23;;;4.60;;
13343;SDS011;6741;48.964;9.406;2024-02-15T01:06:47;5.63;;;4.27;;
13343;SDS011;6741;48.964;9.406;2024-02-15T01:09:14;4.97;;;4.47;;
13343;SDS011;6741;48.964;9.406;2024-02-15T01:11:41;5.33;;;4.33;;
13343;SDS011;6741;48.964;9.406;2024-02-15T01:14:10;4.80;;;4.40;;
13343;SDS011;6741;48.964;9.406;2024-02-15T01:16:36;5.87;;;4.83;;
13343;SDS011;6741;48.964;9.406;2024-02-15T01:19:03;6.73;;;4.33;;
13343;SDS011;6741;48.964;9.406;2024-02-15T01:21:30;5.40;;;4.33;;
13343;SDS011;6741;48.964;9.406;2024-02-15T01:23:58;4.80;;;4.13;;
13343;SDS011;6741;48.964;9.406;2024-02-15T01:26:25;5.20;;;4.57;;
13343;SDS011;6741;48.964;9.406;2024-02-15T01:28:52;4.67;;;4.23;;
13343;SDS011;6741;48.964;9.406;2024-02-15T01:31:20;4.40;;;3.80;;
13343;SDS011;6741;48.964;9.406;2024-02-15T01:33:47;4.70;;;3.93;;
13343;SDS011;6741;48.964;9.406;2024-02-15T01:36:14;5.37;;;3.97;;
13343;SDS011;6741;48.964;9.406;2024-02-15T01:38:42;4.83;;;4.30;;
13343;SDS011;6741;48.964;9.406;2024-02-15T01:41:09;5.40;;;4.30;;
13343;SDS011;6741;48.964;9.406;2024-02-15T01:43:36;6.17;;;4.47;;
13343;SDS011;6741;48.964;9.406;2024-02-15T01:46:04;5.87;;;4.80;;
13343;SDS011;6741;48.964;9.406;2024-02-15T01:48:36;5.20;;;4.70;;
13343;SDS011;6741;48.964;9.406;2024-02-15T01:51:06;5.50;;;4.93;;
13343;SDS011;6741;48.964;9.406;2024-02-15T01:53:34;6.90;;;5.57;;
13343;SDS011;6741;48.964;9.406;2024-02-15T01:56:00;6.10;;;4.97;;
13343;SDS011;6741;48.964;9.406;2024-02-15T01:58:28;6.97;;;4.53;;
13343;SDS011;6741;48.964;9.406;2024-02-15T02:00:57;6.13;;;4.97;;
13343;SDS011;6741;48.964;9.406;2024-02-15T02:03:26;5.27;;;4.73;;
13343;SDS011;6741;48.964;9.406;2024-02-15T02:05:54;6.33;;;4.60;;
13343;SDS011;6741;48.964;9.406;2024-02-15T02:08:21;6.13;;;4.57;;
13343;SDS011;6741;48.964;9.406;2024-02-15T02:10:48;9.37;;;4.80;;
13343;SDS011;6741;48.964;9.406;2024-02-15T02:13:16;7.00;;;4.90;;
13343;SDS011;6741;48.964;9.406;2024-02-15T02:15:43;5.80;;;5.20;;
13343;SDS011;6741;48.964;9.406;2024-02-15T02:18:09;6.67;;;4.97;;
13343;SDS011;6741;48.964;9.406;2024-02-15T02:20:36;9.30;;;5.57;;
13343;SDS011;6741;48.964;9.406;2024-02-15T02:23:06;5.17;;;4.67;;
13343;SDS011;6741;48.964;9.406;2024-02-15T02:25:37;5.53;;;5.03;;
13343;SDS011;6741;48.964;9.406;2024-02-15T02:28:04;6.23;;;4.77;;
13343;SDS011;6741;48.964;9.406;2024-02-15T02:30:32;6.87;;;4.87;;
13343;SDS011;6741;48.964;9.406;2024-02-15T02:32:59;7.53;;;5.33;;
13343;SDS011;6741;48.964;9.406;2024-02-15T02:35:26;4.77;;;4.20;;
13343;SDS011;6741;48.964;9.406;2024-02-15T02:37:55;6.93;;;4.90;;
13343;SDS011;6741;48.964;9.406;2024-02-15T02:40:22;7.53;;;4.67;;
13343;SDS011;6741;48.964;9.406;2024-02-15T02:42:51;5.93;;;4.67;;
13343;SDS011;6741;48.964;9.406;2024-02-15T02:45:19;6.87;;;5.00;;
13343;SDS011;6741;48.964;9.406;2024-02-15T02:47:47;6.33;;;4.97;;
13343;SDS011;6741;48.964;9.406;2024-02-15T02:50:14;6.83;;;4.90;;
13343;SDS011;6741;48.964;9.406;2024-02-15T02:52:41;5.47;;;4.97;;
13343;SDS011;6741;48.964;9.406;2024-02-15T02:55:09;5.17;;;4.67;;
13343;SDS011;6741;48.964;9.406;2024-02-15T02:57:36;5.27;;;4.77;;
13343;SDS011;6741;48.964;9.406;2024-02-15T03:00:06;5.70;;;4.57;;
13343;SDS011;6741;48.964;9.406;2024-02-15T03:02:37;5.87;;;4.80;;
13343;SDS011;6741;48.964;9.406;2024-02-15T03:05:05;5.27;;;4.27;;
13343;SDS011;6741;48.964;9.406;2024-02-15T03:07:33;5.20;;;4.70;;
13343;SDS011;6741;48.964;9.406;2024-02-15T03:10:00;4.47;;;4.00;;
13343;SDS011;6741;48.964;9.406;2024-02-15T03:12:29;4.97;;;4.20;;
13343;SDS011;6741;48.964;9.406;2024-02-15T03:14:56;6.27;;;4.33;;
13343;SDS011;6741;48.964;9.406;2024-02-15T03:17:24;5.77;;;4.27;;
13343;SDS011;6741;48.964;9.406;2024-02-15T03:19:51;7.00;;;4.17;;
13343;SDS011;6741;48.964;9.406;2024-02-15T03:22:18;5.03;;;4.50;;
13343;SDS011;6741;48.964;9.406;2024-02-15T03:24:45;7.47;;;4.93;;
13343;SDS011;6741;48.964;9.406;2024-02-15T03:27:12;4.60;;;4.13;;
13343;SDS011;6741;48.964;9.406;2024-02-15T03:29:39;5.50;;;4.30;;
13343;SDS011;6741;48.964;9.406;2024-02-15T03:32:06;5.77;;;4.30;;
13343;SDS011;6741;48.964;9.406;2024-02-15T03:34:37;4.93;;;3.97;;
13343;SDS011;6741;48.964;9.406;2024-02-15T03:37:05;7.90;;;4.53;;
13343;SDS011;6741;48.964;9.406;2024-02-15T03:39:31;4.43;;;3.83;;
13343;SDS011;6741;48.964;9.406;2024-02-15T03:41:58;5.33;;;3.80;;
13343;SDS011;6741;48.964;9.406;2024-02-15T03:44:25;4.30;;;3.57;;
13343;SDS011;6741;48.964;9.406;2024-02-15T03:46:52;4.20;;;3.80;;
13343;SDS011;6741;48.964;9.406;2024-02-15T03:49:20;4.50;;;3.67;;
13343;SDS011;6741;48.964;9.406;2024-02-15T03:51:49;7.70;;;4.33;;
13343;SDS011;6741;48.964;9.406;2024-02-15T03:54:15;5.57;;;3.73;;
13343;SDS011;6741;48.964;9.406;2024-02-15T03:56:46;5.40;;;4.53;;
13343;SDS011;6741;48.964;9.406;2024-02-15T03:59:17;6.30;;;4.63;;
13343;SDS011;6741;48.964;9.406;2024-02-15T04:01:50;5.30;;;4.70;;
13343;SDS011;6741;48.964;9.406;2024-02-15T04:04:16;6.17;;;4.67;;
13343;SDS011;6741;48.964;9.406;2024-02-15T04:06:46;5.00;;;4.50;;
13343;SDS011;6741;48.964;9.406;2024-02-15T04:09:14;5.57;;;4.80;;
13343;SDS011;6741;48.964;9.406;2024-02-15T04:11:42;6.47;;;4.43;;
13343;SDS011;6741;48.964;9.406;2024-02-15T04:14:09;4.80;;;4.40;;
13343;SDS011;6741;48.964;9.406;2024-02-15T04:16:36;7.27;;;4.67;;
13343;SDS011;6741;48.964;9.406;2024-02-15T04:19:03;4.90;;;4.40;;
13343;SDS011;6741;48.964;9.406;2024-02-15T04:21:30;5.33;;;4.23;;
13343;SDS011;6741;48.964;9.406;2024-02-15T04:23:56;4.80;;;4.03;;
13343;SDS011;6741;48.964;9.406;2024-02-15T04:26:25;4.80;;;4.30;;
13343;SDS011;6741;48.964;9.406;2024-02-15T04:28:55;5.63;;;4.30;;
13343;SDS011;6741;48.964;9.406;2024-02-15T04:31:22;6.33;;;4.50;;
13343;SDS011;6741;48.964;9.406;2024-02-15T04:33:52;6.23;;;4.63;;
13343;SDS011;6741;48.964;9.406;2024-02-15T04:36:19;18.37;;;13.40;;
13343;SDS011;6741;48.964;9.406;2024-02-15T04:38:48;7.30;;;6.60;;
13343;SDS011;6741;48.964;9.406;2024-02-15T04:41:16;8.33;;;7.07;;
13343;SDS011;6741;48.964;9.406;2024-02-15T04:43:47;8.77;;;5.40;;
13343;SDS011;6741;48.964;9.406;2024-02-15T04:46:13;6.30;;;5.73;;
13343;SDS011;6741;48.964;9.406;2024-02-15T04:48:40;8.83;;;6.47;;
13343;SDS011;6741;48.964;9.406;2024-02-15T04:51:08;10.83;;;9.33;;
13343;SDS011;6741;48.964;9.406;2024-02-15T04:53:35;10.67;;;8.27;;
13343;SDS011;6741;48.964;9.406;2024-02-15T04:56:03;6.87;;;6.17;;
13343;SDS011;6741;48.964;9.406;2024-02-15T04:58:36;7.93;;;6.57;;
13343;SDS011;6741;48.964;9.406;2024-02-15T05:01:11;6.20;;;5.00;;
13343;SDS011;6741;48.964;9.406;2024-02-15T05:03:39;4.43;;;3.97;;
13343;SDS011;6741;48.964;9.406;2024-02-15T05:06:06;7.60;;;3.73;;
13343;SDS011;6741;48.964;9.406;2024-02-15T05:08:34;5.07;;;3.10;;
13343;SDS011;6741;48.964;9.406;2024-02-15T05:11:03;5.90;;;4.07;;
13343;SDS011;6741;48.964;9.406;2024-02-15T05:13:31;4.33;;;3.93;;
13343;SDS011;6741;48.964;9.406;2024-02-15T05:15:58;4.30;;;3.70;;
13343;SDS011;6741;48.964;9.406;2024-02-15T05:18:26;4.20;;;3.80;;
13343;SDS011;6741;48.964;9.406;2024-02-15T05:20:55;3.80;;;3.20;;
13343;SDS011;6741;48.964;9.406;2024-02-15T05:23:22;3.80;;;3.20;;
13343;SDS011;6741;48.964;9.406;2024-02-15T05:25:49;4.73;;;2.90;;
13343;SDS011;6741;48.964;9.406;2024-02-15T05:28:16;3.80;;;3.40;;
13343;SDS011;6741;48.964;9.406;2024-02-15T05:30:44;4.20;;;3.13;;
13343;SDS011;6741;48.964;9.406;2024-02-15T05:33:10;4.67;;;3.47;;
13343;SDS011;6741;48.964;9.406;2024-02-15T05:35:39;5.20;;;3.80;;
13343;SDS011;6741;48.964;9.406;2024-02-15T05:38:06;4.80;;;3.90;;
13343;SDS011;6741;48.964;9.406;2024-02-15T05:40:35;4.87;;;4.03;;
13343;SDS011;6741;48.964;9.406;2024-02-15T05:43:02;4.40;;;3.40;;
13343;SDS011;6741;48.964;9.406;2024-02-15T05:45:31;4.53;;;4.10;;
13343;SDS011;6741;48.964;9.406;2024-02-15T05:48:04;5.73;;;4.10;;
13343;SDS011;6741;48.964;9.406;2024-02-15T05:50:38;4.03;;;3.53;;
13343;SDS011;6741;48.964;9.406;2024-02-15T05:53:06;5.53;;;3.90;;
13343;SDS011;6741;48.964;9.406;2024-02-15T05:55:33;3.67;;;3.30;;
13343;SDS011;6741;48.964;9.406;2024-02-15T05:58:01;4.23;;;3.43;;
13343;SDS011;6741;48.964;9.406;2024-02-15T06:00:29;4.20;;;3.40;;
13343;SDS011;6741;48.964;9.406;2024-02-15T06:02:56;5.73;;;3.97;;
13343;SDS011;6741;48.964;9.406;2024-02-15T06:05:23;5.27;;;4.63;;
13343;SDS011;6741;48.964;9.406;2024-02-15T06:07:52;5.00;;;4.10;;
13343;SDS011;6741;48.964;9.406;2024-02-15T06:10:19;5.33;;;4.50;;
13343;SDS011;6741;48.964;9.406;2024-02-15T06:12:45;4.77;;;4.00;;
13343;SDS011;6741;48.964;9.406;2024-02-15T06:15:12;6.20;;;4.40;;
13343;SDS011;6741;48.964;9.406;2024-02-15T06:17:41;5.20;;;4.47;;
13343;SDS011;6741;48.964;9.406;2024-02-15T06:20:11;5.43;;;4.43;;
13343;SDS011;6741;48.964;9.406;2024-02-15T06:22:39;8.97;;;4.40;;
13343;SDS011;6741;48.964;9.406;2024-02-15T06:25:08;5.40;;;4.90;;
13343;SDS011;6741;48.964;9.406;2024-02-15T06:27:36;7.33;;;5.70;;
13343;SDS011;6741;48.964;9.406;2024-02-15T06:30:05;5.43;;;4.67;;
13343;SDS011;6741;48.964;9.406;2024-02-15T06:32:51;8.23;;;5.40;;
13343;SDS011;6741;48.964;9.406;2024-02-15T06:35:35;8.93;;;4.70;;
13343;SDS011;6741;48.964;9.406;2024-02-15T06:38:20;4.47;;;4.07;;
13343;SDS011;6741;48.964;9.406;2024-02-15T06:41:06;7.03;;;5.53;;
13343;SDS011;6741;48.964;9.406;2024-02-15T06:43:33;7.80;;;5.70;;
13343;SDS011;6741;48.964;9.406;2024-02-15T06:46:00;12.97;;;6.37;;
13343;SDS011;6741;48.964;9.406;2024-02-15T06:48:27;7.27;;;5.87;;
13343;SDS011;6741;48.964;9.406;2024-02-15T06:50:54;8.83;;;5.80;;
13343;SDS011;6741;48.964;9.406;2024-02-15T06:53:22;8.73;;;6.30;;
13343;SDS011;6741;48.964;9.406;2024-02-15T06:55:49;8.17;;;5.97;;
13343;SDS011;6741;48.964;9.406;2024-02-15T06:58:17;6.43;;;5.40;;
13343;SDS011;6741;48.964;9.406;2024-02-15T07:00:45;7.33;;;6.03;;
13343;SDS011;6741;48.964;9.406;2024-02-15T07:03:15;10.37;;;5.40;;
13343;SDS011;6741;48.964;9.406;2024-02-15T07:05:43;7.67;;;5.30;;
13343;SDS011;6741;48.964;9.406;2024-02-15T07:08:09;7.47;;;5.30;;
13343;SDS011;6741;48.964;9.406;2024-02-15T07:10:37;6.80;;;5.17;;
13343;SDS011;6741;48.964;9.406;2024-02-15T07:13:04;5.20;;;4.70;;
13343;SDS011;6741;48.964;9.406;2024-02-15T07:15:33;6.80;;;4.87;;
13343;SDS011;6741;48.964;9.406;2024-02-15T07:18:03;6.20;;;4.93;;
13343;SDS011;6741;48.964;9.406;2024-02-15T07:20:31;5.17;;;4.67;;
13343;SDS011;6741;48.964;9.406;2024-02-15T07:22:58;5.23;;;4.60;;
13343;SDS011;6741;48.964;9.406;2024-02-15T07:25:25;6.10;;;4.57;;
13343;SDS011;6741;48.964;9.406;2024-02-15T07:27:52;5.67;;;5.03;;
13343;SDS011;6741;48.964;9.406;2024-02-15T07:30:19;5.10;;;4.60;;
13343;SDS011;6741;48.964;9.406;2024-02-15T07:32:49;6.53;;;5.27;;
13343;SDS011;6741;48.964;9.406;2024-02-15T07:35:16;4.67;;;3.87;;
13343;SDS011;6741;48.964;9.406;2024-02-15T07:37:50;5.37;;;4.70;;
13343;SDS011;6741;48.964;9.406;2024-02-15T07:40:20;7.60;;;4.20;;
13343;SDS011;6741;48.964;9.406;2024-02-15T07:42:48;6.10;;;4.97;;
13343;SDS011;6741;48.964;9.406;2024-02-15T07:45:15;6.63;;;4.63;;
13343;SDS011;6741;48.964;9.406;2024-02-15T07:47:43;6.07;;;4.20;;
13343;SDS011;6741;48.964;9.406;2024-02-15T07:50:11;5.17;;;4.43;;
13343;SDS011;6741;48.964;9.406;2024-02-15T07:52:45;5.20;;;4.70;;
13343;SDS011;6741;48.964;9.406;2024-02-15T07:55:13;5.50;;;4.87;;
13343;SDS011;6741;48.964;9.406;2024-02-15T07:57:39;7.80;;;5.33;;
13343;SDS011;6741;48.964;9.406;2024-02-15T08:00:07;8.20;;;5.00;;
13343;SDS011;6741;48.964;9.406;2024-02-15T08:02:37;7.27;;;4.47;;
13343;SDS011;6741;48.964;9.406;2024-02-15T08:05:05;5.10;;;4.60;;
13343;SDS011;6741;48.964;9.406;2024-02-15T08:07:36;4.83;;;4.33;;
13343;SDS011;6741;48.964;9.406;2024-02-15T08:10:04;6.67;;;4.10;;
13343;SDS011;6741;48.964;9.406;2024-02-15T08:12:37;4.90;;;4.23;;
13343;SDS011;6741;48.964;9.406;2024-02-15T08:15:05;8.00;;;4.10;;
13343;SDS011;6741;48.964;9.406;2024-02-15T08:17:37;5.73;;;3.97;;
13343;SDS011;6741;48.964;9.406;2024-02-15T08:20:06;5.83;;;3.77;;
13343;SDS011;6741;48.964;9.406;2024-02-15T08:22:34;5.80;;;3.90;;
13343;SDS011;6741;48.964;9.406;2024-02-15T08:25:09;3.97;;;3.33;;
13343;SDS011;6741;48.964;9.406;2024-02-15T08:27:38;2.93;;;2.40;;
13343;SDS011;6741;48.964;9.406;2024-02-15T08:30:08;3.37;;;2.13;;
13343;SDS011;6741;48.964;9.406;2024-02-15T08:32:36;3.37;;;2.20;;
13343;SDS011;6741;48.964;9.406;2024-02-15T08:35:04;3.70;;;1.87;;
13343;SDS011;6741;48.964;9.406;2024-02-15T08:37:31;3.47;;;1.97;;
13343;SDS011;6741;48.964;9.406;2024-02-15T08:40:00;2.80;;;1.90;;
13343;SDS011;6741;48.964;9.406;2024-02-15T08:42:35;3.30;;;1.67;;
13343;SDS011;6741;48.964;9.406;2024-02-15T08:45:03;3.57;;;1.70;;
13343;SDS011;6741;48.964;9.406;2024-02-15T08:47:33;4.17;;;1.70;;
13343;SDS011;6741;48.964;9.406;2024-02-15T08:50:02;3.67;;;2.00;;
13343;SDS011;6741;48.964;9.406;2024-02-15T08:52:30;2.83;;;1.70;;
13343;SDS011;6741;48.964;9.406;2024-02-15T08:54:56;3.63;;;1.67;;
13343;SDS011;6741;48.964;9.406;2024-02-15T08:57:27;2.93;;;1.73;;
13343;SDS011;6741;48.964;9.406;2024-02-15T08:59:54;4.27;;;1.70;;
13343;SDS011;6741;48.964;9.406;2024-02-15T09:02:21;3.40;;;1.77;;
13343;SDS011;6741;48.964;9.406;2024-02-15T09:04:47;3.30;;;1.73;;
13343;SDS011;6741;48.964;9.406;2024-02-15T09:07:14;3.70;;;1.77;;
13343;SDS011;6741;48.964;9.406;2024-02-15T09:09:41;1.50;;;1.40;;
13343;SDS011;6741;48.964;9.406;2024-02-15T09:12:08;2.37;;;1.50;;
13343;SDS011;6741;48.964;9.406;2024-02-15T09:14:36;1.40;;;1.30;;
13343;SDS011;6741;48.964;9.406;2024-02-15T09:17:04;4.23;;;1.60;;
13343;SDS011;6741;48.964;9.406;2024-02-15T09:19:32;2.63;;;1.73;;
13343;SDS011;6741;48.964;9.406;2024-02-15T09:21:59;1.83;;;1.40;;
13343;SDS011;6741;48.964;9.406;2024-02-15T09:24:26;4.50;;;1.40;;
13343;SDS011;6741;48.964;9.406;2024-02-15T09:26:54;1.53;;;1.30;;
13343;SDS011;6741;48.964;9.406;2024-02-15T09:29:21;1.43;;;1.33;;
13343;SDS011;6741;48.964;9.406;2024-02-15T09:31:50;2.33;;;1.60;;
13343;SDS011;6741;48.964;9.406;2024-02-15T09:34:18;3.23;;;1.53;;
13343;SDS011;6741;48.964;9.406;2024-02-15T09:36:44;2.37;;;1.53;;
13343;SDS011;6741;48.964;9.406;2024-02-15T09:39:11;1.60;;;1.37;;
13343;SDS011;6741;48.964;9.406;2024-02-15T09:41:39;3.33;;;1.60;;
13343;SDS011;6741;48.964;9.406;2024-02-15T09:44:07;1.67;;;1.30;;
13343;SDS011;6741;48.964;9.406;2024-02-15T09:46:34;1.60;;;1.50;;
13343;SDS011;6741;48.964;9.406;2024-02-15T09:49:04;1.60;;;1.23;;
13343;SDS011;6741;48.964;9.406;2024-02-15T09:51:32;2.10;;;1.73;;
13343;SDS011;6741;48.964;9.406;2024-02-15T09:54:00;1.40;;;1.30;;
13343;SDS011;6741;48.964;9.406;2024-02-15T09:56:28;3.07;;;1.33;;
13343;SDS011;6741;48.964;9.406;2024-02-15T09:58:59;1.90;;;1.30;;
13343;SDS011;6741;48.964;9.406;2024-02-15T10:01:35;1.53;;;1.13;;
13343;SDS011;6741;48.964;9.406;2024-02-15T10:04:07;2.40;;;1.77;;
13343;SDS011;6741;48.964;9.406;2024-02-15T10:06:33;2.55;;;1.15;;
13343;SDS011;6741;48.964;9.406;2024-02-15T10:11:55;2.43;;;1.17;;
13343;SDS011;6741;48.964;9.406;2024-02-15T10:14:23;2.60;;;1.30;;
13343;SDS011;6741;48.964;9.406;2024-02-15T10:16:51;3.35;;;1.00;;
13343;SDS011;6741;48.964;9.406;2024-02-15T10:19:20;2.05;;;1.50;;
13343;SDS011;6741;48.964;9.406;2024-02-15T10:21:50;2.67;;;1.35;;
13343;SDS011;6741;48.964;9.406;2024-02-15T10:24:20;1.23;;;1.13;;
13343;SDS011;6741;48.964;9.406;2024-02-15T10:26:49;1.73;;;1.20;;
13343;SDS011;6741;48.964;9.406;2024-02-15T10:29:17;1.65;;;1.30;;
13343;SDS011;6741;48.964;9.406;2024-02-15T10:31:54;2.45;;;1.05;;
13343;SDS011;6741;48.964;9.406;2024-02-15T10:34:25;1.85;;;1.30;;
13343;SDS011;6741;48.964;9.406;2024-02-15T10:36:52;1.17;;;1.02;;
13343;SDS011;6741;48.964;9.406;2024-02-15T10:39:21;1.45;;;1.30;;
13343;SDS011;6741;48.964;9.406;2024-02-15T10:41:50;2.30;;;1.20;;
13343;SDS011;6741;48.964;9.406;2024-02-15T10:44:18;0.93;;;0.80;;
13343;SDS011;6741;48.964;9.406;2024-02-15T10:46:46;2.55;;;1.13;;
13343;SDS011;6741;48.964;9.406;2024-02-15T10:49:18;2.20;;;0.93;;
13343;SDS011;6741;48.964;9.406;2024-02-15T10:51:48;3.53;;;1.05;;
13343;SDS011;6741;48.964;9.406;2024-02-15T10:54:19;1.65;;;0.90;;
13343;SDS011;6741;48.964;9.406;2024-02-15T10:57:03;1.42;;;1.00;;
13343;SDS011;6741;48.964;9.406;2024-02-15T10:59:31;2.00;;;0.90;;
13343;SDS011;6741;48.964;9.406;2024-02-15T11:02:01;1.38;;;0.98;;
13343;SDS011;6741;48.964;9.406;2024-02-15T11:04:37;2.17;;;0.82;;
13343;SDS011;6741;48.964;9.406;2024-02-15T11:07:09;1.35;;;0.73;;
13343;SDS011;6741;48.964;9.406;2024-02-15T11:09:37;3.75;;;1.00;;
13343;SDS011;6741;48.964;9.406;2024-02-15T11:12:05;1.65;;;0.93;;
13343;SDS011;6741;48.964;9.406;2024-02-15T11:14:33;0.98;;;0.82;;
13343;SDS011;6741;48.964;9.406;2024-02-15T11:17:02;1.38;;;0.90;;
13343;SDS011;6741;48.964;9.406;2024-02-15T11:19:41;1.92;;;1.02;;
13343;SDS011;6741;48.964;9.406;2024-02-15T11:22:15;2.05;;;1.05;;
13343;SDS011;6741;48.964;9.406;2024-02-15T11:24:45;1.77;;;0.95;;
13343;SDS011;6741;48.964;9.406;2024-02-15T11:27:23;1.25;;;1.00;;
13343;SDS011;6741;48.964;9.406;2024-02-15T11:29:52;2.35;;;0.90;;
13343;SDS011;6741;48.964;9.406;2024-02-15T11:32:36;2.60;;;0.70;;
13343;SDS011;6741;48.964;9.406;2024-02-15T11:35:05;2.00;;;1.20;;
13343;SDS011;6741;48.964;9.406;2024-02-15T11:37:50;2.00;;;0.90;;
13343;SDS011;6741;48.964;9.406;2024-02-15T11:40:19;1.58;;;1.05;;
13343;SDS011;6741;48.964;9.406;2024-02-15T11:42:51;0.85;;;0.68;;
13343;SDS011;6741;48.964;9.406;2024-02-15T11:45:19;1.40;;;1.00;;
13343;SDS011;6741;48.964;9.406;2024-02-15T11:47:49;3.08;;;1.10;;
13343;SDS011;6741;48.964;9.406;2024-02-15T11:50:17;1.48;;;1.00;;
13343;SDS011;6741;48.964;9.406;2024-02-15T11:52:45;1.02;;;0.77;;
13343;SDS011;6741;48.964;9.406;2024-02-15T11:55:17;0.85;;;0.70;;
13343;SDS011;6741;48.964;9.406;2024-02-15T11:57:54;2.42;;;0.90;;
13343;SDS011;6741;48.964;9.406;2024-02-15T12:00:27;1.60;;;0.73;;
13343;SDS011;6741;48.964;9.406;2024-02-15T12:03:13;1.05;;;0.80;;
13343;SDS011;6741;48.964;9.406;2024-02-15T12:05:58;2.42;;;1.08;;
13343;SDS011;6741;48.964;9.406;2024-02-15T12:14:41;1.05;;;0.70;;
13343;SDS011;6741;48.964;9.406;2024-02-15T12:17:26;3.85;;;1.08;;
13343;SDS011;6741;48.964;9.406;2024-02-15T12:20:10;1.10;;;0.80;;
13343;SDS011;6741;48.964;9.406;2024-02-15T12:22:39;1.38;;;0.75;;
13343;SDS011;6741;48.964;9.406;2024-02-15T12:25:12;2.92;;;0.85;;
13343;SDS011;6741;48.964;9.406;2024-02-15T12:27:42;2.17;;;0.82;;
13343;SDS011;6741;48.964;9.406;2024-02-15T12:30:13;1.70;;;0.60;;
13343;SDS011;6741;48.964;9.406;2024-02-15T12:32:45;2.15;;;0.90;;
13343;SDS011;6741;48.964;9.406;2024-02-15T12:35:13;1.17;;;0.75;;
13343;SDS011;6741;48.964;9.406;2024-02-15T12:37:42;1.95;;;0.73;;
13343;SDS011;6741;48.964;9.406;2024-02-15T12:40:12;1.77;;;0.80;;
13343;SDS011;6741;48.964;9.406;2024-02-15T12:42:42;2.13;;;0.75;;
13343;SDS011;6741;48.964;9.406;2024-02-15T12:45:16;2.03;;;0.90;;
13343;SDS011;6741;48.964;9.406;2024-02-15T12:47:47;0.55;;;0.47;;
13343;SDS011;6741;48.964;9.406;2024-02-15T12:50:15;0.70;;;0.70;;
13343;SDS011;6741;48.964;9.406;2024-02-15T12:52:42;1.13;;;0.52;;
13343;SDS011;6741;48.964;9.406;2024-02-15T12:55:14;1.67;;;0.90;;
13343;SDS011;6741;48.964;9.406;2024-02-15T12:57:42;4.15;;;0.88;;
13343;SDS011;6741;48.964;9.406;2024-02-15T13:00:13;1.90;;;0.63;;
13343;SDS011;6741;48.964;9.406;2024-02-15T13:02:45;1.30;;;0.80;;
13343;SDS011;6741;48.964;9.406;2024-02-15T13:05:14;1.25;;;0.80;;
13343;SDS011;6741;48.964;9.406;2024-02-15T13:07:43;2.15;;;0.90;;
13343;SDS011;6741;48.964;9.406;2024-02-15T13:10:10;1.42;;;0.90;;
13343;SDS011;6741;48.964;9.406;2024-02-15T13:12:39;1.10;;;0.82;;
13343;SDS011;6741;48.964;9.406;2024-02-15T13:15:07;2.13;;;0.73;;
13343;SDS011;6741;48.964;9.406;2024-02-15T13:17:37;1.52;;;0.90;;
13343;SDS011;6741;48.964;9.406;2024-02-15T13:20:07;1.67;;;1.08;;
13343;SDS011;6741;48.964;9.406;2024-02-15T13:22:37;4.50;;;1.20;;
13343;SDS011;6741;48.964;9.406;2024-02-15T13:25:05;2.03;;;0.98;;
13343;SDS011;6741;48.964;9.406;2024-02-15T13:27:33;4.20;;;0.60;;
13343;SDS011;6741;48.964;9.406;2024-02-15T13:30:01;1.30;;;0.90;;
13343;SDS011;6741;48.964;9.406;2024-02-15T13:32:29;2.35;;;0.77;;
13343;SDS011;6741;48.964;9.406;2024-02-15T13:34:56;1.92;;;0.82;;
13343;SDS011;6741;48.964;9.406;2024-02-15T13:37:25;1.90;;;1.05;;
13343;SDS011;6741;48.964;9.406;2024-02-15T13:39:52;3.42;;;1.17;;
13343;SDS011;6741;48.964;9.406;2024-02-15T13:42:20;1.70;;;0.82;;
13343;SDS011;6741;48.964;9.406;2024-02-15T13:44:47;3.03;;;0.90;;
13343;SDS011;6741;48.964;9.406;2024-02-15T13:47:13;1.25;;;0.80;;
13343;SDS011;6741;48.964;9.406;2024-02-15T13:49:41;1.08;;;0.60;;
13343;SDS011;6741;48.964;9.406;2024-02-15T13:52:08;0.93;;;0.85;;
13343;SDS011;6741;48.964;9.406;2024-02-15T13:54:40;0.57;;;0.50;;
13343;SDS011;6741;48.964;9.406;2024-02-15T13:57:08;2.25;;;0.65;;
13343;SDS011;6741;48.964;9.406;2024-02-15T13:59:36;1.77;;;0.98;;
13343;SDS011;6741;48.964;9.406;2024-02-15T14:02:03;0.82;;;0.70;;
13343;SDS011;6741;48.964;9.406;2024-02-15T14:04:30;3.20;;;1.10;;
13343;SDS011;6741;48.964;9.406;2024-02-15T14:06:58;0.70;;;0.70;;
13343;SDS011;6741;48.964;9.406;2024-02-15T14:09:25;2.97;;;1.17;;
13343;SDS011;6741;48.964;9.406;2024-02-15T14:11:55;2.00;;;1.00;;
13343;SDS011;6741;48.964;9.406;2024-02-15T14:14:23;2.72;;;0.70;;
13343;SDS011;6741;48.964;9.406;2024-02-15T14:16:50;1.35;;;0.90;;
13343;SDS011;6741;48.964;9.406;2024-02-15T14:19:17;2.25;;;0.93;;
13343;SDS011;6741;48.964;9.406;2024-02-15T14:21:46;6.32;;;1.00;;
13343;SDS011;6741;48.964;9.406;2024-02-15T14:24:13;1.77;;;0.88;;
13343;SDS011;6741;48.964;9.406;2024-02-15T14:26:39;3.60;;;1.00;;
13343;SDS011;6741;48.964;9.406;2024-02-15T14:29:08;4.25;;;1.20;;
13343;SDS011;6741;48.964;9.406;2024-02-15T14:31:35;2.00;;;0.70;;
13343;SDS011;6741;48.964;9.406;2024-02-15T14:34:20;5.68;;;1.17;;
13343;SDS011;6741;48.964;9.406;2024-02-15T14:36:46;0.98;;;0.88;;
13343;SDS011;6741;48.964;9.406;2024-02-15T14:39:13;3.58;;;1.33;;
13343;SDS011;6741;48.964;9.406;2024-02-15T14:41:40;1.33;;;0.90;;
13343;SDS011;6741;48.964;9.406;2024-02-15T14:44:09;2.20;;;0.90;;
13343;SDS011;6741;48.964;9.406;2024-02-15T14:46:37;2.15;;;0.73;;
13343;SDS011;6741;48.964;9.406;2024-02-15T14:49:05;1.38;;;0.80;;
13343;SDS011;6741;48.964;9.406;2024-02-15T14:51:33;2.70;;;0.90;;
13343;SDS011;6741;48.964;9.406;2024-02-15T14:54:02;2.42;;;1.00;;
13343;SDS011;6741;48.964;9.406;2024-02-15T14:56:28;2.88;;;0.80;;
13343;SDS011;6741;48.964;9.406;2024-02-15T14:58:57;1.90;;;0.82;;
13343;SDS011;6741;48.964;9.406;2024-02-15T15:01:26;1.60;;;0.80;;
13343;SDS011;6741;48.964;9.406;2024-02-15T15:03:54;1.10;;;1.00;;
13343;SDS011;6741;48.964;9.406;2024-02-15T15:06:23;0.93;;;0.93;;
13343;SDS011;6741;48.964;9.406;2024-02-15T15:09:08;1.63;;;0.70;;
13343;SDS011;6741;48.964;9.406;2024-02-15T15:11:53;2.72;;;0.98;;
13343;SDS011;6741;48.964;9.406;2024-02-15T15:14:38;1.67;;;0.90;;
13343;SDS011;6741;48.964;9.406;2024-02-15T15:17:08;3.08;;;1.17;;
13343;SDS011;6741;48.964;9.406;2024-02-15T15:19:37;3.28;;;0.82;;